sensor_id;sensor_type;location;lat;lon;timestamp;pressure;altitude;pressure_sealevel;temperature;humidity
69239;BME280;56349;51.816;-0.026;2022-11-20T00:00:38;100582.18;;;22.58;35.60
69239;BME280;56349;51.816;-0.026;2022-11-20T00:03:04;100581.76;;;22.65;35.75
69239;BME280;56349;51.816;-0.026;2022-11-20T00:05:32;100578.37;;;22.49;35.94
69239;BME280;56349;51.816;-0.026;2022-11-20T00:07:56;100573.69;;;22.59;36.13
69239;BME280;56349;51.816;-0.026;2022-11-20T00:10:22;100573.62;;;22.66;36.30
69239;BME280;56349;51.816;-0.026;2022-11-20T00:12:48;100569.38;;;22.29;36.48
69239;BME280;56349;51.816;-0.026;2022-11-20T00:15:14;100571.56;;;22.37;36.66
69239;BME280;56349;51.816;-0.026;2022-11-20T00:17:40;100573.22;;;22.02;36.83
69239;BME280;56349;51.816;-0.026;2022-11-20T00:20:07;100574.07;;;22.11;36.99
69239;BME280;56349;51.816;-0.026;2022-11-20T00:22:32;100573.92;;;22.22;37.15
69239;BME280;56349;51.816;-0.026;2022-11-20T00:24:57;100570.10;;;21.87;37.31
69239;BME280;56349;51.816;-0.026;2022-11-20T00:27:23;100561.86;;;21.75;37.44
69239;BME280;56349;51.816;-0.026;2022-11-20T00:29:49;100560.59;;;21.87;37.59
69239;BME280;56349;51.816;-0.026;2022-11-20T00:32:16;100561.98;;;21.78;37.69
69239;BME280;56349;51.816;-0.026;2022-11-20T00:34:42;100557.25;;;21.46;37.80
69239;BME280;56349;51.816;-0.026;2022-11-20T00:37:07;100553.77;;;21.60;37.94
69239;BME280;56349;51.816;-0.026;2022-11-20T00:39:33;100551.80;;;21.76;38.05
69239;BME280;56349;51.816;-0.026;2022-11-20T00:41:59;100551.51;;;21.39;38.21
69239;BME280;56349;51.816;-0.026;2022-11-20T00:44:25;100549.06;;;21.30;38.32
69239;BME280;56349;51.816;-0.026;2022-11-20T00:46:51;100542.53;;;21.47;38.42
69239;BME280;56349;51.816;-0.026;2022-11-20T00:49:17;100538.94;;;21.13;38.54
69239;BME280;56349;51.816;-0.026;2022-11-20T00:51:43;100539.42;;;21.07;38.62
69239;BME280;56349;51.816;-0.026;2022-11-20T00:54:09;100533.31;;;20.77;38.72
69239;BME280;56349;51.816;-0.026;2022-11-20T00:56:35;100531.00;;;21.22;38.77
69239;BME280;56349;51.816;-0.026;2022-11-20T00:59:01;100526.05;;;20.91;38.81
69239;BME280;56349;51.816;-0.026;2022-11-20T01:01:27;100522.91;;;21.13;38.87
69239;BME280;56349;51.816;-0.026;2022-11-20T01:03:55;100520.54;;;21.08;38.94
69239;BME280;56349;51.816;-0.026;2022-11-20T01:06:20;100514.56;;;21.01;39.02
69239;BME280;56349;51.816;-0.026;2022-11-20T01:08:45;100512.54;;;20.96;39.08
69239;BME280;56349;51.816;-0.026;2022-11-20T01:11:12;100507.71;;;20.63;39.17
69239;BME280;56349;51.816;-0.026;2022-11-20T01:13:36;100505.55;;;20.85;39.21
69239;BME280;56349;51.816;-0.026;2022-11-20T01:16:03;100504.22;;;20.54;39.27
69239;BME280;56349;51.816;-0.026;2022-11-20T01:18:27;100504.11;;;20.76;39.34
69239;BME280;56349;51.816;-0.026;2022-11-20T01:20:53;100506.55;;;20.44;39.41
69239;BME280;56349;51.816;-0.026;2022-11-20T01:23:18;100507.62;;;20.68;39.43
69239;BME280;56349;51.816;-0.026;2022-11-20T01:25:44;100508.24;;;20.64;39.48
69239;BME280;56349;51.816;-0.026;2022-11-20T01:28:10;100508.65;;;20.60;39.54
69239;BME280;56349;51.816;-0.026;2022-11-20T01:30:36;100504.71;;;20.56;39.59
69239;BME280;56349;51.816;-0.026;2022-11-20T01:33:02;100501.97;;;20.52;39.65
69239;BME280;56349;51.816;-0.026;2022-11-20T01:35:28;100500.05;;;20.71;39.69
69239;BME280;56349;51.816;-0.026;2022-11-20T01:37:54;100503.16;;;20.44;39.74
69239;BME280;56349;51.816;-0.026;2022-11-20T01:40:20;100501.30;;;20.43;39.75
69239;BME280;56349;51.816;-0.026;2022-11-20T01:42:52;100493.52;;;20.39;39.79
69239;BME280;56349;51.816;-0.026;2022-11-20T01:47:40;100482.07;;;20.30;39.91
69239;BME280;56349;51.816;-0.026;2022-11-20T01:50:06;100480.84;;;20.26;39.95
69239;BME280;56349;51.816;-0.026;2022-11-20T01:52:32;100477.09;;;20.23;39.98
69239;BME280;56349;51.816;-0.026;2022-11-20T01:54:57;100480.27;;;20.63;40.06
69239;BME280;56349;51.816;-0.026;2022-11-20T01:57:20;100477.57;;;20.15;40.11
69239;BME280;56349;51.816;-0.026;2022-11-20T01:59:50;100474.76;;;20.13;40.13
69239;BME280;56349;51.816;-0.026;2022-11-20T02:02:11;100472.72;;;20.55;40.15
69239;BME280;56349;51.816;-0.026;2022-11-20T02:04:37;100467.88;;;20.10;40.15
69239;BME280;56349;51.816;-0.026;2022-11-20T02:07:04;100456.84;;;20.29;40.16
69239;BME280;56349;51.816;-0.026;2022-11-20T02:09:29;100447.81;;;20.04;40.21
69239;BME280;56349;51.816;-0.026;2022-11-20T02:11:54;100444.52;;;20.46;40.23
69239;BME280;56349;51.816;-0.026;2022-11-20T02:14:20;100437.93;;;20.20;40.28
69239;BME280;56349;51.816;-0.026;2022-11-20T02:16:47;100435.65;;;20.17;40.33
69239;BME280;56349;51.816;-0.026;2022-11-20T02:19:22;100435.20;;;20.37;40.34
69239;BME280;56349;51.816;-0.026;2022-11-20T02:21:40;100431.89;;;20.32;40.39
69239;BME280;56349;51.816;-0.026;2022-11-20T02:24:05;100431.34;;;20.29;40.45
69239;BME280;56349;51.816;-0.026;2022-11-20T02:26:30;100430.67;;;20.26;40.47
69239;BME280;56349;51.816;-0.026;2022-11-20T02:28:54;100423.45;;;20.01;40.50
69239;BME280;56349;51.816;-0.026;2022-11-20T02:31:19;100412.70;;;20.20;40.54
69239;BME280;56349;51.816;-0.026;2022-11-20T02:33:45;100408.60;;;20.19;40.57
69239;BME280;56349;51.816;-0.026;2022-11-20T02:36:14;100400.74;;;20.16;40.58
69239;BME280;56349;51.816;-0.026;2022-11-20T02:38:37;100393.79;;;20.13;40.62
69239;BME280;56349;51.816;-0.026;2022-11-20T02:41:02;100388.64;;;19.88;40.63
69239;BME280;56349;51.816;-0.026;2022-11-20T02:43:28;100386.00;;;20.09;40.64
69239;BME280;56349;51.816;-0.026;2022-11-20T02:45:54;100383.23;;;20.07;40.67
69239;BME280;56349;51.816;-0.026;2022-11-20T02:48:19;100383.25;;;20.04;40.71
69239;BME280;56349;51.816;-0.026;2022-11-20T02:50:45;100379.48;;;20.04;40.71
69239;BME280;56349;51.816;-0.026;2022-11-20T02:53:11;100373.32;;;19.81;40.70
69239;BME280;56349;51.816;-0.026;2022-11-20T02:55:37;100368.63;;;19.78;40.72
69239;BME280;56349;51.816;-0.026;2022-11-20T02:58:03;100365.35;;;20.00;40.73
69239;BME280;56349;51.816;-0.026;2022-11-20T03:00:29;100364.30;;;19.98;40.75
69239;BME280;56349;51.816;-0.026;2022-11-20T03:02:55;100359.35;;;19.98;40.73
69239;BME280;56349;51.816;-0.026;2022-11-20T03:05:21;100352.33;;;19.95;40.75
69239;BME280;56349;51.816;-0.026;2022-11-20T03:07:47;100353.39;;;19.70;40.79
69239;BME280;56349;51.816;-0.026;2022-11-20T03:10:12;100349.59;;;19.88;40.82
69239;BME280;56349;51.816;-0.026;2022-11-20T03:12:38;100349.35;;;19.87;40.84
69239;BME280;56349;51.816;-0.026;2022-11-20T03:15:05;100347.37;;;19.85;40.85
69239;BME280;56349;51.816;-0.026;2022-11-20T03:17:30;100346.32;;;19.83;40.87
69239;BME280;56349;51.816;-0.026;2022-11-20T03:19:56;100343.83;;;19.83;40.87
69239;BME280;56349;51.816;-0.026;2022-11-20T03:22:22;100345.08;;;19.38;40.86
69239;BME280;56349;51.816;-0.026;2022-11-20T03:24:48;100343.70;;;19.82;40.85
69239;BME280;56349;51.816;-0.026;2022-11-20T03:27:14;100340.82;;;19.79;40.89
69239;BME280;56349;51.816;-0.026;2022-11-20T03:29:40;100333.34;;;19.76;40.91
69239;BME280;56349;51.816;-0.026;2022-11-20T03:32:06;100328.40;;;19.72;40.94
69239;BME280;56349;51.816;-0.026;2022-11-20T03:34:32;100324.68;;;19.71;40.95
69239;BME280;56349;51.816;-0.026;2022-11-20T03:36:58;100320.81;;;19.70;40.96
69239;BME280;56349;51.816;-0.026;2022-11-20T03:39:23;100319.84;;;19.68;40.98
69239;BME280;56349;51.816;-0.026;2022-11-20T03:41:49;100317.09;;;19.92;41.00
69239;BME280;56349;51.816;-0.026;2022-11-20T03:44:15;100318.00;;;19.62;41.03
69239;BME280;56349;51.816;-0.026;2022-11-20T03:46:41;100316.19;;;19.62;41.02
69239;BME280;56349;51.816;-0.026;2022-11-20T03:49:07;100312.91;;;19.60;41.05
69239;BME280;56349;51.816;-0.026;2022-11-20T03:51:34;100308.22;;;19.60;41.04
69239;BME280;56349;51.816;-0.026;2022-11-20T03:54:02;100301.96;;;19.59;41.03
69239;BME280;56349;51.816;-0.026;2022-11-20T03:56:26;100295.35;;;19.58;41.03
69239;BME280;56349;51.816;-0.026;2022-11-20T03:58:50;100293.29;;;19.35;41.06
69239;BME280;56349;51.816;-0.026;2022-11-20T04:01:17;100290.07;;;19.83;41.05
69239;BME280;56349;51.816;-0.026;2022-11-20T04:03:42;100286.37;;;19.53;41.08
69239;BME280;56349;51.816;-0.026;2022-11-20T04:06:10;100284.16;;;19.53;41.08
69239;BME280;56349;51.816;-0.026;2022-11-20T04:08:34;100284.48;;;19.53;41.06
69239;BME280;56349;51.816;-0.026;2022-11-20T04:13:24;100283.20;;;19.74;41.11
69239;BME280;56349;51.816;-0.026;2022-11-20T04:15:50;100277.47;;;19.45;41.11
69239;BME280;56349;51.816;-0.026;2022-11-20T04:18:15;100275.85;;;19.92;41.13
69239;BME280;56349;51.816;-0.026;2022-11-20T04:20:41;100276.69;;;19.70;41.11
69239;BME280;56349;51.816;-0.026;2022-11-20T04:23:07;100273.19;;;19.42;41.12
69239;BME280;56349;51.816;-0.026;2022-11-20T04:25:33;100273.32;;;19.39;41.13
69239;BME280;56349;51.816;-0.026;2022-11-20T04:27:59;100267.73;;;19.36;41.17
69239;BME280;56349;51.816;-0.026;2022-11-20T04:30:25;100261.24;;;19.35;41.22
69239;BME280;56349;51.816;-0.026;2022-11-20T04:32:52;100260.46;;;19.34;41.31
69239;BME280;56349;51.816;-0.026;2022-11-20T04:35:16;100256.91;;;19.38;41.39
69239;BME280;56349;51.816;-0.026;2022-11-20T04:37:42;100252.97;;;19.47;41.40
69239;BME280;56349;51.816;-0.026;2022-11-20T04:40:09;100249.74;;;19.58;41.34
69239;BME280;56349;51.816;-0.026;2022-11-20T04:42:34;100246.86;;;19.70;41.25
69239;BME280;56349;51.816;-0.026;2022-11-20T04:45:00;100243.39;;;19.85;41.13
69239;BME280;56349;51.816;-0.026;2022-11-20T04:47:26;100239.56;;;19.80;40.94
69239;BME280;56349;51.816;-0.026;2022-11-20T04:49:52;100230.34;;;20.20;40.70
69239;BME280;56349;51.816;-0.026;2022-11-20T04:52:18;100224.99;;;19.89;40.47
69239;BME280;56349;51.816;-0.026;2022-11-20T04:54:44;100222.80;;;20.24;40.24
69239;BME280;56349;51.816;-0.026;2022-11-20T04:57:13;100217.92;;;20.09;40.04
69239;BME280;56349;51.816;-0.026;2022-11-20T04:59:36;100207.90;;;20.37;39.86
69239;BME280;56349;51.816;-0.026;2022-11-20T05:02:02;100204.16;;;20.15;39.75
69239;BME280;56349;51.816;-0.026;2022-11-20T05:04:28;100202.36;;;20.36;39.67
69239;BME280;56349;51.816;-0.026;2022-11-20T05:06:54;100201.44;;;20.56;39.65
69239;BME280;56349;51.816;-0.026;2022-11-20T05:09:20;100200.36;;;20.28;39.69
69239;BME280;56349;51.816;-0.026;2022-11-20T05:11:46;100197.41;;;20.01;39.75
69239;BME280;56349;51.816;-0.026;2022-11-20T05:14:12;100194.88;;;19.99;39.82
69239;BME280;56349;51.816;-0.026;2022-11-20T05:16:37;100193.19;;;19.95;39.98
69239;BME280;56349;51.816;-0.026;2022-11-20T05:19:04;100188.88;;;20.36;40.14
69239;BME280;56349;51.816;-0.026;2022-11-20T05:21:30;100183.24;;;20.33;40.33
69239;BME280;56349;51.816;-0.026;2022-11-20T05:23:54;100182.41;;;20.31;40.50
69239;BME280;56349;51.816;-0.026;2022-11-20T05:26:22;100179.29;;;20.29;40.69
69239;BME280;56349;51.816;-0.026;2022-11-20T05:28:46;100179.55;;;20.27;40.88
69239;BME280;56349;51.816;-0.026;2022-11-20T05:31:14;100172.69;;;20.05;41.03
69239;BME280;56349;51.816;-0.026;2022-11-20T05:33:39;100169.48;;;20.29;41.19
69239;BME280;56349;51.816;-0.026;2022-11-20T05:36:03;100166.53;;;20.30;41.33
69239;BME280;56349;51.816;-0.026;2022-11-20T05:38:28;100161.77;;;19.86;41.49
69239;BME280;56349;51.816;-0.026;2022-11-20T05:40:53;100156.12;;;20.09;41.64
69239;BME280;56349;51.816;-0.026;2022-11-20T05:43:19;100149.03;;;20.33;41.76
69239;BME280;56349;51.816;-0.026;2022-11-20T05:45:51;100143.78;;;20.35;41.88
69239;BME280;56349;51.816;-0.026;2022-11-20T05:48:10;100143.34;;;19.92;42.00
69239;BME280;56349;51.816;-0.026;2022-11-20T05:50:36;100138.34;;;20.19;42.09
69239;BME280;56349;51.816;-0.026;2022-11-20T05:53:02;100136.65;;;20.44;42.17
69239;BME280;56349;51.816;-0.026;2022-11-20T05:55:28;100132.82;;;20.46;42.26
69239;BME280;56349;51.816;-0.026;2022-11-20T05:57:54;100133.75;;;20.49;42.34
69239;BME280;56349;51.816;-0.026;2022-11-20T06:00:19;100129.72;;;20.31;42.40
69239;BME280;56349;51.816;-0.026;2022-11-20T06:02:45;100126.88;;;20.14;42.43
69239;BME280;56349;51.816;-0.026;2022-11-20T06:05:11;100128.27;;;20.20;42.47
69239;BME280;56349;51.816;-0.026;2022-11-20T06:07:37;100130.39;;;20.25;42.47
69239;BME280;56349;51.816;-0.026;2022-11-20T06:10:04;100128.37;;;20.52;42.49
69239;BME280;56349;51.816;-0.026;2022-11-20T06:12:31;100124.61;;;20.33;42.54
69239;BME280;56349;51.816;-0.026;2022-11-20T06:14:55;100116.80;;;20.83;42.52
69239;BME280;56349;51.816;-0.026;2022-11-20T06:17:21;100113.37;;;20.42;42.53
69239;BME280;56349;51.816;-0.026;2022-11-20T06:19:46;100111.47;;;20.67;42.55
69239;BME280;56349;51.816;-0.026;2022-11-20T06:22:13;100109.88;;;20.49;42.54
69239;BME280;56349;51.816;-0.026;2022-11-20T06:24:39;100107.80;;;20.52;42.56
69239;BME280;56349;51.816;-0.026;2022-11-20T06:27:05;100103.99;;;21.01;42.51
69239;BME280;56349;51.816;-0.026;2022-11-20T06:29:31;100098.03;;;20.59;42.48
69239;BME280;56349;51.816;-0.026;2022-11-20T06:31:57;100094.40;;;21.06;42.44
69239;BME280;56349;51.816;-0.026;2022-11-20T06:34:23;100094.18;;;20.64;42.38
69239;BME280;56349;51.816;-0.026;2022-11-20T06:36:49;100091.40;;;20.67;42.29
69239;BME280;56349;51.816;-0.026;2022-11-20T06:39:14;100089.37;;;20.70;42.18
69239;BME280;56349;51.816;-0.026;2022-11-20T06:41:40;100092.54;;;20.72;42.11
69239;BME280;56349;51.816;-0.026;2022-11-20T06:44:05;100101.66;;;20.74;42.01
69239;BME280;56349;51.816;-0.026;2022-11-20T06:46:31;100102.32;;;20.80;41.85
69239;BME280;56349;51.816;-0.026;2022-11-20T06:48:58;100097.86;;;20.79;41.78
69239;BME280;56349;51.816;-0.026;2022-11-20T06:51:23;100091.02;;;20.53;41.69
69239;BME280;56349;51.816;-0.026;2022-11-20T06:53:50;100094.78;;;20.80;41.60
69239;BME280;56349;51.816;-0.026;2022-11-20T06:56:16;100101.45;;;20.80;41.53
69239;BME280;56349;51.816;-0.026;2022-11-20T06:58:42;100101.01;;;20.80;41.44
69239;BME280;56349;51.816;-0.026;2022-11-20T07:01:10;100106.51;;;20.81;41.36
69239;BME280;56349;51.816;-0.026;2022-11-20T07:03:33;100105.99;;;20.79;41.30
69239;BME280;56349;51.816;-0.026;2022-11-20T07:06:00;100110.83;;;20.78;41.26
69239;BME280;56349;51.816;-0.026;2022-11-20T07:08:24;100113.91;;;20.79;41.17
69239;BME280;56349;51.816;-0.026;2022-11-20T07:10:50;100093.50;;;20.80;41.07
69239;BME280;56349;51.816;-0.026;2022-11-20T07:13:16;100098.08;;;20.80;41.00
69239;BME280;56349;51.816;-0.026;2022-11-20T07:15:42;100098.49;;;20.77;40.97
69239;BME280;56349;51.816;-0.026;2022-11-20T07:18:08;100079.55;;;20.76;40.91
69239;BME280;56349;51.816;-0.026;2022-11-20T07:20:34;100076.86;;;20.74;40.86
69239;BME280;56349;51.816;-0.026;2022-11-20T07:23:00;100075.62;;;20.71;40.85
69239;BME280;56349;51.816;-0.026;2022-11-20T07:25:27;100071.30;;;20.74;40.76
69239;BME280;56349;51.816;-0.026;2022-11-20T07:27:52;100068.88;;;20.74;40.69
69239;BME280;56349;51.816;-0.026;2022-11-20T07:30:18;100061.62;;;20.50;40.67
69239;BME280;56349;51.816;-0.026;2022-11-20T07:32:46;100055.71;;;20.80;40.68
69239;BME280;56349;51.816;-0.026;2022-11-20T07:35:08;100063.60;;;20.79;40.77
69239;BME280;56349;51.816;-0.026;2022-11-20T07:37:34;100063.46;;;20.85;40.89
69239;BME280;56349;51.816;-0.026;2022-11-20T07:40:00;100064.81;;;21.00;40.88
69239;BME280;56349;51.816;-0.026;2022-11-20T07:42:27;100071.20;;;20.83;40.98
69239;BME280;56349;51.816;-0.026;2022-11-20T07:44:51;100071.02;;;20.98;40.83
69239;BME280;56349;51.816;-0.026;2022-11-20T07:47:17;100068.58;;;21.22;40.51
69239;BME280;56349;51.816;-0.026;2022-11-20T07:49:43;100065.81;;;21.44;40.25
69239;BME280;56349;51.816;-0.026;2022-11-20T07:52:09;100065.46;;;21.46;39.97
69239;BME280;56349;51.816;-0.026;2022-11-20T07:54:35;100069.79;;;21.49;39.70
69239;BME280;56349;51.816;-0.026;2022-11-20T07:57:01;100071.54;;;21.74;39.38
69239;BME280;56349;51.816;-0.026;2022-11-20T07:59:27;100067.80;;;22.00;39.04
69239;BME280;56349;51.816;-0.026;2022-11-20T08:01:53;100070.06;;;22.00;38.67
69239;BME280;56349;51.816;-0.026;2022-11-20T08:04:19;100070.75;;;22.23;38.33
69239;BME280;56349;51.816;-0.026;2022-11-20T08:06:46;100074.02;;;22.43;38.00
69239;BME280;56349;51.816;-0.026;2022-11-20T08:09:10;100073.89;;;22.40;37.69
69239;BME280;56349;51.816;-0.026;2022-11-20T08:11:36;100078.12;;;22.82;37.40
69239;BME280;56349;51.816;-0.026;2022-11-20T08:14:02;100079.86;;;23.02;37.11
69239;BME280;56349;51.816;-0.026;2022-11-20T08:16:28;100094.73;;;22.88;36.89
69239;BME280;56349;51.816;-0.026;2022-11-20T08:18:54;100089.63;;;22.93;36.70
69239;BME280;56349;51.816;-0.026;2022-11-20T08:21:19;100099.69;;;23.19;36.44
69239;BME280;56349;51.816;-0.026;2022-11-20T08:23:45;100102.68;;;22.92;36.27
69239;BME280;56349;51.816;-0.026;2022-11-20T08:26:11;100105.69;;;22.58;36.13
69239;BME280;56349;51.816;-0.026;2022-11-20T08:28:37;100101.08;;;22.96;36.04
69239;BME280;56349;51.816;-0.026;2022-11-20T08:31:04;100103.95;;;23.09;35.99
69239;BME280;56349;51.816;-0.026;2022-11-20T08:33:29;100101.51;;;22.65;35.99
69239;BME280;56349;51.816;-0.026;2022-11-20T08:35:59;100099.02;;;22.49;36.01
69239;BME280;56349;51.816;-0.026;2022-11-20T08:38:20;100098.77;;;22.32;36.06
69239;BME280;56349;51.816;-0.026;2022-11-20T08:40:46;100099.84;;;22.14;36.12
69239;BME280;56349;51.816;-0.026;2022-11-20T08:43:17;100100.64;;;22.24;36.20
69239;BME280;56349;51.816;-0.026;2022-11-20T08:45:38;100101.78;;;22.07;36.27
69239;BME280;56349;51.816;-0.026;2022-11-20T08:48:04;100101.52;;;21.90;36.37
69239;BME280;56349;51.816;-0.026;2022-11-20T08:50:30;100100.39;;;21.74;36.49
69239;BME280;56349;51.816;-0.026;2022-11-20T08:52:55;100097.27;;;21.60;36.59
69239;BME280;56349;51.816;-0.026;2022-11-20T08:55:21;100094.78;;;21.73;36.82
69239;BME280;56349;51.816;-0.026;2022-11-20T08:57:48;100092.17;;;21.69;36.90
69239;BME280;56349;51.816;-0.026;2022-11-20T09:00:13;100086.32;;;21.61;37.02
69239;BME280;56349;51.816;-0.026;2022-11-20T09:02:37;100085.96;;;21.68;37.19
69239;BME280;56349;51.816;-0.026;2022-11-20T09:05:04;100081.18;;;21.50;37.37
69239;BME280;56349;51.816;-0.026;2022-11-20T09:07:29;100082.68;;;21.37;37.66
69239;BME280;56349;51.816;-0.026;2022-11-20T09:09:55;100078.92;;;21.25;37.94
69239;BME280;56349;51.816;-0.026;2022-11-20T09:12:21;100078.86;;;21.13;38.18
69239;BME280;56349;51.816;-0.026;2022-11-20T09:14:47;100077.97;;;21.04;38.34
69239;BME280;56349;51.816;-0.026;2022-11-20T09:17:13;100082.83;;;20.97;38.48
69239;BME280;56349;51.816;-0.026;2022-11-20T09:19:39;100082.84;;;21.17;38.55
69239;BME280;56349;51.816;-0.026;2022-11-20T09:22:04;100081.02;;;21.10;38.64
69239;BME280;56349;51.816;-0.026;2022-11-20T09:24:30;100078.98;;;21.01;38.71
69239;BME280;56349;51.816;-0.026;2022-11-20T09:26:56;100077.47;;;20.92;38.79
69239;BME280;56349;51.816;-0.026;2022-11-20T09:29:21;100075.75;;;20.86;38.84
69239;BME280;56349;51.816;-0.026;2022-11-20T09:31:47;100080.26;;;20.79;38.91
69239;BME280;56349;51.816;-0.026;2022-11-20T09:34:13;100092.36;;;20.72;38.98
69239;BME280;56349;51.816;-0.026;2022-11-20T09:36:39;100102.09;;;20.64;39.14
69239;BME280;56349;51.816;-0.026;2022-11-20T09:39:05;100107.59;;;20.56;39.24
69239;BME280;56349;51.816;-0.026;2022-11-20T09:41:45;100113.77;;;20.70;39.31
69239;BME280;56349;51.816;-0.026;2022-11-20T09:44:01;100117.94;;;20.41;39.38
69239;BME280;56349;51.816;-0.026;2022-11-20T09:46:28;100118.22;;;20.57;39.40
69239;BME280;56349;51.816;-0.026;2022-11-20T09:48:58;100113.40;;;20.30;39.44
69239;BME280;56349;51.816;-0.026;2022-11-20T09:51:23;100108.53;;;20.26;39.47
69239;BME280;56349;51.816;-0.026;2022-11-20T09:53:50;100107.16;;;20.23;39.47
69239;BME280;56349;51.816;-0.026;2022-11-20T09:56:09;100105.05;;;20.20;39.51
69239;BME280;56349;51.816;-0.026;2022-11-20T09:58:35;100107.71;;;20.15;39.54
69239;BME280;56349;51.816;-0.026;2022-11-20T10:01:00;100109.06;;;20.11;39.57
69239;BME280;56349;51.816;-0.026;2022-11-20T10:03:31;100105.64;;;20.06;39.63
69239;BME280;56349;51.816;-0.026;2022-11-20T10:05:52;100101.47;;;20.22;39.69
69239;BME280;56349;51.816;-0.026;2022-11-20T10:08:17;100100.65;;;20.17;39.74
69239;BME280;56349;51.816;-0.026;2022-11-20T10:10:42;100094.72;;;20.33;39.79
69239;BME280;56349;51.816;-0.026;2022-11-20T10:13:17;100091.77;;;20.06;39.85
69239;BME280;56349;51.816;-0.026;2022-11-20T10:15:36;100090.52;;;19.79;39.90
69239;BME280;56349;51.816;-0.026;2022-11-20T10:18:09;100090.57;;;20.20;39.93
69239;BME280;56349;51.816;-0.026;2022-11-20T10:20:28;100090.17;;;19.95;39.96
69239;BME280;56349;51.816;-0.026;2022-11-20T10:22:59;100088.74;;;20.15;39.98
69239;BME280;56349;51.816;-0.026;2022-11-20T10:25:14;100087.12;;;19.89;40.02
69239;BME280;56349;51.816;-0.026;2022-11-20T10:30:09;100077.98;;;19.82;40.07
69239;BME280;56349;51.816;-0.026;2022-11-20T10:32:33;100076.89;;;20.03;40.08
69239;BME280;56349;51.816;-0.026;2022-11-20T10:34:59;100072.84;;;20.01;40.10
69239;BME280;56349;51.816;-0.026;2022-11-20T10:37:22;100070.59;;;19.99;40.11
69239;BME280;56349;51.816;-0.026;2022-11-20T10:39:50;100071.79;;;19.98;40.12
69239;BME280;56349;51.816;-0.026;2022-11-20T10:42:13;100071.59;;;19.96;40.13
69239;BME280;56349;51.816;-0.026;2022-11-20T10:44:36;100072.67;;;19.93;40.16
69239;BME280;56349;51.816;-0.026;2022-11-20T10:47:00;100068.43;;;19.90;40.19
69239;BME280;56349;51.816;-0.026;2022-11-20T10:49:27;100070.33;;;19.88;40.22
69239;BME280;56349;51.816;-0.026;2022-11-20T10:52:01;100069.16;;;19.50;40.14
69239;BME280;56349;51.816;-0.026;2022-11-20T10:54:24;100072.51;;;19.99;40.08
69239;BME280;56349;51.816;-0.026;2022-11-20T10:56:47;100071.55;;;19.81;39.99
69239;BME280;56349;51.816;-0.026;2022-11-20T11:01:40;100066.60;;;19.85;39.92
69239;BME280;56349;51.816;-0.026;2022-11-20T11:04:00;100063.32;;;19.63;39.89
69239;BME280;56349;51.816;-0.026;2022-11-20T11:06:32;100065.71;;;20.02;39.91
69239;BME280;56349;51.816;-0.026;2022-11-20T11:11:22;100064.68;;;19.86;40.09
69239;BME280;56349;51.816;-0.026;2022-11-20T11:13:42;100064.92;;;19.62;40.10
69239;BME280;56349;51.816;-0.026;2022-11-20T11:16:17;100066.66;;;19.82;40.12
69239;BME280;56349;51.816;-0.026;2022-11-20T11:18:34;100066.15;;;19.77;40.16
69239;BME280;56349;51.816;-0.026;2022-11-20T11:21:00;100069.18;;;19.74;40.15
69239;BME280;56349;51.816;-0.026;2022-11-20T11:23:32;100068.04;;;19.52;40.16
69239;BME280;56349;51.816;-0.026;2022-11-20T11:25:56;100070.81;;;19.73;40.26
69239;BME280;56349;51.816;-0.026;2022-11-20T11:28:21;100078.08;;;19.71;40.43
69239;BME280;56349;51.816;-0.026;2022-11-20T11:30:44;100074.14;;;19.72;40.57
69239;BME280;56349;51.816;-0.026;2022-11-20T11:33:10;100077.10;;;20.05;40.67
69239;BME280;56349;51.816;-0.026;2022-11-20T11:35:38;100082.82;;;19.91;40.76
69239;BME280;56349;51.816;-0.026;2022-11-20T11:38:05;100081.87;;;19.82;40.72
69239;BME280;56349;51.816;-0.026;2022-11-20T11:40:24;100077.61;;;19.75;40.57
69239;BME280;56349;51.816;-0.026;2022-11-20T11:42:54;100075.13;;;19.90;40.37
69239;BME280;56349;51.816;-0.026;2022-11-20T11:45:16;100069.83;;;20.05;40.15
69239;BME280;56349;51.816;-0.026;2022-11-20T11:47:46;100072.19;;;20.18;39.95
69239;BME280;56349;51.816;-0.026;2022-11-20T11:50:15;100072.31;;;20.01;39.76
69239;BME280;56349;51.816;-0.026;2022-11-20T11:52:42;100067.86;;;20.54;39.63
69239;BME280;56349;51.816;-0.026;2022-11-20T11:55:00;100058.90;;;20.56;39.54
69239;BME280;56349;51.816;-0.026;2022-11-20T11:57:28;100054.97;;;20.35;39.53
69239;BME280;56349;51.816;-0.026;2022-11-20T11:59:57;100058.19;;;20.35;39.47
69239;BME280;56349;51.816;-0.026;2022-11-20T12:02:25;100055.82;;;20.33;39.44
69239;BME280;56349;51.816;-0.026;2022-11-20T12:04:44;100056.02;;;20.30;39.35
69239;BME280;56349;51.816;-0.026;2022-11-20T12:07:10;100057.28;;;20.30;39.34
69239;BME280;56349;51.816;-0.026;2022-11-20T12:09:36;100060.91;;;20.52;39.34
69239;BME280;56349;51.816;-0.026;2022-11-20T12:12:02;100059.82;;;20.36;39.25
69239;BME280;56349;51.816;-0.026;2022-11-20T12:14:30;100062.89;;;20.36;39.33
69239;BME280;56349;51.816;-0.026;2022-11-20T12:16:48;100060.54;;;20.35;39.39
69239;BME280;56349;51.816;-0.026;2022-11-20T12:19:14;100062.63;;;20.36;39.34
69239;BME280;56349;51.816;-0.026;2022-11-20T12:21:48;100065.13;;;20.55;39.33
69239;BME280;56349;51.816;-0.026;2022-11-20T12:26:43;100066.56;;;20.27;39.21
69239;BME280;56349;51.816;-0.026;2022-11-20T12:29:02;100062.50;;;20.19;39.18
69239;BME280;56349;51.816;-0.026;2022-11-20T12:33:58;100060.16;;;20.07;39.44
69239;BME280;56349;51.816;-0.026;2022-11-20T12:36:23;100061.18;;;20.03;39.57
69239;BME280;56349;51.816;-0.026;2022-11-20T12:41:11;100065.58;;;20.01;39.79
69239;BME280;56349;51.816;-0.026;2022-11-20T12:43:31;100065.64;;;20.24;39.77
69239;BME280;56349;51.816;-0.026;2022-11-20T12:46:08;100068.65;;;20.25;39.81
69239;BME280;56349;51.816;-0.026;2022-11-20T12:48:30;100068.11;;;20.10;39.82
69239;BME280;56349;51.816;-0.026;2022-11-20T12:50:56;100069.09;;;20.68;39.66